Terminal Aerodrome Forecast
Issued by NWS Duluth, MN

Current Version | Previous Version | Text Only | Print | Product List | Glossary On
Versions: 1 2 3 4 5 6 7 8 9 10 11 12 13 14 15 16 17 18 19 20 21
273
FTUS43 KDLH 211758 AAD
TAFDLH
TAF AMD
KDLH 211758Z 2118/2218 18011G19KT 6SM -SHRA BR VCTS SCT005 OVC007CB
     FM211845 18011G19KT 5SM -SHRA SCT005 OVC007
     FM220000 18009KT P6SM -SHRA VCTS OVC008CB
     FM220300 21007KT 4SM -SHRA BR OVC008
     FM220500 26007KT P6SM OVC050
     FM221300 27007KT P6SM SCT200=

USA.gov is the U.S. government's official web portal to all federal, state and local government web resources and services.